San Jose del Cabo (SJD/MMSD)

Map

Destinations

Information

Location
San Jose del Cabo, Baja California Sur, Mexico
Local Time
17:06 / 5:06 pm
GMT Time
00:06 / 12:06 am
Gates
Unassigned
No FAA reported delays
METAR MMSD 252343Z 14009KT 12SM FEW250 32/07 A2978 RMK SLP071 57017 963 8/001
TAF TAF MMSD 251650Z 2518/2618 14015KT P6SM BKN250 FM260600 34008KT P6SM BKN250